createdAt,value
2023-03-17T04:12:18.718Z,75.71
2023-03-17T04:12:52.962Z,74.46
2023-03-17T04:13:52.869Z,76.82
2023-03-17T04:14:52.821Z,76.40
2023-03-17T04:15:52.864Z,75.74
2023-03-17T04:16:52.805Z,73.35
2023-03-17T04:17:52.849Z,74.80
2023-03-17T04:18:52.870Z,75.12
2023-03-17T04:19:52.802Z,75.09
2023-03-17T04:20:52.787Z,74.46
2023-03-17T04:21:54.658Z,75.29
2023-03-17T04:22:53.767Z,74.63
2023-03-17T04:23:52.766Z,73.49
2023-03-17T04:24:52.717Z,74.91
2023-03-17T04:25:52.714Z,70.90
2023-03-17T04:26:52.691Z,73.91
2023-03-17T04:27:52.724Z,72.87
2023-03-17T04:28:52.741Z,71.73
2023-03-17T04:29:52.722Z,74.32
2023-03-17T04:30:52.725Z,71.73
2023-03-17T04:31:52.740Z,74.53
2023-03-17T04:32:52.713Z,74.01
2023-03-17T04:33:52.670Z,71.52
2023-03-17T04:34:52.676Z,75.57
2023-03-17T04:35:52.745Z,70.59
2023-03-17T04:36:52.623Z,74.84
2023-03-17T04:37:52.655Z,71.83
2023-03-17T04:38:52.630Z,74.22
2023-03-17T04:39:52.641Z,74.29
2023-03-17T04:40:52.597Z,69.34
2023-03-17T04:41:52.609Z,70.10
2023-03-17T04:42:52.630Z,71.03
2023-03-17T04:43:52.636Z,74.60
2023-03-17T04:44:52.584Z,74.77
2023-03-17T04:45:52.700Z,72.28
2023-03-17T04:46:52.714Z,74.98
2023-03-17T04:47:52.579Z,71.03
2023-03-17T04:48:52.589Z,75.88
2023-03-17T04:49:52.563Z,74.53
2023-03-17T04:50:52.561Z,74.84
2023-03-17T04:51:52.540Z,73.88
2023-03-17T04:52:53.485Z,69.76
2023-03-17T04:53:52.606Z,70.75
2023-03-17T04:54:52.554Z,73.77
2023-03-17T04:55:52.541Z,71.62
2023-03-17T04:56:53.535Z,73.18
2023-03-17T04:57:52.538Z,74.35
2023-03-17T04:58:52.559Z,75.98
2023-03-17T04:59:52.522Z,73.49
2023-03-17T05:00:52.533Z,75.92
2023-03-17T05:01:52.545Z,76.19
2023-03-17T05:02:52.486Z,73.60
2023-03-17T05:03:52.474Z,77.86
2023-03-17T05:04:52.471Z,75.74
2023-03-17T05:05:52.537Z,73.18
2023-03-17T05:06:52.461Z,74.22
2023-03-17T05:07:52.436Z,77.03
2023-03-17T05:08:52.482Z,74.84
2023-03-17T05:09:52.983Z,74.84
2023-03-17T05:10:52.399Z,74.63
2023-03-17T05:11:52.437Z,73.77
2023-03-17T05:12:52.422Z,76.75
2023-03-17T05:13:52.403Z,74.98
2023-03-17T05:14:52.400Z,73.42
2023-03-17T05:15:52.395Z,73.87
2023-03-17T05:16:52.445Z,75.46
2023-03-17T05:17:52.345Z,76.51
2023-03-17T05:18:52.362Z,76.89
2023-03-17T05:19:52.373Z,78.76
2023-03-17T05:20:52.351Z,78.10
2023-03-17T05:21:52.361Z,74.67
2023-03-17T05:22:52.984Z,74.46
2023-03-17T05:23:54.911Z,74.88
2023-03-17T05:24:53.311Z,76.19
2023-03-17T05:25:52.316Z,74.43
2023-03-17T05:26:52.294Z,74.25
2023-03-17T05:27:52.316Z,78.17
2023-03-17T05:28:52.291Z,76.29
2023-03-17T05:29:52.277Z,74.32
2023-03-17T05:30:52.315Z,74.11
2023-03-17T05:31:52.291Z,74.39
2023-03-17T05:32:52.391Z,75.85
2023-03-17T05:33:52.254Z,74.39
2023-03-17T05:34:52.283Z,75.12
2023-03-17T05:35:52.415Z,72.31
2023-03-17T05:36:52.260Z,74.18
2023-03-17T05:37:52.216Z,74.39
2023-03-17T05:38:52.208Z,75.09
2023-03-17T05:39:52.231Z,74.46
2023-03-17T05:40:52.218Z,74.84
2023-03-17T05:41:52.243Z,75.15
2023-03-17T05:42:52.214Z,75.02
2023-03-17T05:43:52.205Z,70.38
2023-03-17T05:44:52.202Z,71.83
2023-03-17T05:45:52.251Z,73.14
2023-03-17T05:46:52.200Z,72.94
2023-03-17T05:47:52.185Z,73.14
2023-03-17T05:48:52.161Z,72.03
2023-03-17T05:49:52.164Z,73.60
2023-03-17T05:50:52.167Z,76.09
2023-03-17T05:51:52.105Z,74.43
2023-03-17T05:52:52.119Z,74.95
2023-03-17T05:53:52.119Z,75.26
2023-03-17T05:54:52.092Z,76.37
2023-03-17T05:55:52.117Z,74.29
2023-03-17T05:56:52.090Z,73.60
2023-03-17T05:57:52.096Z,74.29
2023-03-17T05:58:52.090Z,72.86
2023-03-17T05:59:52.134Z,76.19
2023-03-17T06:00:52.061Z,75.43
2023-03-17T06:01:52.070Z,73.18
2023-03-17T06:02:52.104Z,73.60
2023-03-17T06:03:52.067Z,76.40
2023-03-17T06:04:52.075Z,75.36
2023-03-17T06:05:52.046Z,73.39
2023-03-17T06:06:52.024Z,75.57
2023-03-17T06:07:56.210Z,76.37
2023-03-17T06:08:53.056Z,74.70
2023-03-17T06:09:52.074Z,74.84
2023-03-17T06:10:52.026Z,74.74
2023-03-17T06:11:51.996Z,76.06
2023-03-17T06:12:51.984Z,74.70
2023-03-17T06:13:51.976Z,73.56
2023-03-17T06:14:52.028Z,74.70
2023-03-17T06:15:52.004Z,75.32
2023-03-17T06:16:51.989Z,76.43
2023-03-17T06:17:51.965Z,75.88
2023-03-17T06:18:51.957Z,74.11
2023-03-17T06:19:51.985Z,73.49
2023-03-17T06:20:51.928Z,75.29
2023-03-17T06:21:51.944Z,75.81
2023-03-17T06:23:04.028Z,76.61
2023-03-17T06:23:53.891Z,74.74
2023-03-17T06:24:51.973Z,74.19
2023-03-17T06:25:51.919Z,74.08
2023-03-17T06:26:51.894Z,73.28
2023-03-17T06:27:51.913Z,74.50
2023-03-17T06:28:51.900Z,73.49
2023-03-17T06:29:51.904Z,74.67
2023-03-17T06:30:52.894Z,75.01
2023-03-17T06:31:51.880Z,77.06
2023-03-17T06:32:51.963Z,76.43
2023-03-17T06:33:51.879Z,74.70
2023-03-17T06:34:51.900Z,75.85
2023-03-17T06:35:51.891Z,76.43
2023-03-17T06:36:51.847Z,76.02
2023-03-17T06:37:51.857Z,75.60
2023-03-17T06:38:51.840Z,74.36
2023-03-17T06:39:51.815Z,76.23
2023-03-17T06:40:51.827Z,74.18
2023-03-17T06:41:51.820Z,76.75
2023-03-17T06:42:51.805Z,74.15
2023-03-17T06:43:51.785Z,73.87
2023-03-17T06:44:51.812Z,75.54
2023-03-17T06:45:51.794Z,75.92
2023-03-17T06:46:52.826Z,76.02
2023-03-17T06:47:51.774Z,72.97
2023-03-17T06:48:51.739Z,72.87
2023-03-17T06:49:51.740Z,74.53
2023-03-17T06:50:51.729Z,74.95
2023-03-17T06:51:51.718Z,74.32
2023-03-17T06:52:51.783Z,74.91
2023-03-17T06:53:51.758Z,73.67
2023-03-17T06:54:51.715Z,74.67
2023-03-17T06:55:51.684Z,73.63
2023-03-17T06:56:51.682Z,71.35
2023-03-17T06:57:51.707Z,72.74
2023-03-17T06:58:51.720Z,73.74
2023-03-17T06:59:51.670Z,71.45
2023-03-17T07:00:52.659Z,71.25
2023-03-17T07:01:51.713Z,71.91
2023-03-17T07:02:51.671Z,71.49
2023-03-17T07:03:51.633Z,71.66
2023-03-17T07:04:51.713Z,74.15
2023-03-17T07:05:51.619Z,71.91
2023-03-17T07:06:51.621Z,73.43
2023-03-17T07:07:51.634Z,74.46
2023-03-17T07:08:51.643Z,74.77
2023-03-17T07:09:51.616Z,71.01
2023-03-17T07:10:51.603Z,72.05
2023-03-17T07:11:51.585Z,71.63
2023-03-17T07:12:51.608Z,73.88
2023-03-17T07:13:51.580Z,71.18
2023-03-17T07:14:51.559Z,70.15
2023-03-17T07:15:53.864Z,68.59
2023-03-17T07:16:51.695Z,69.01
2023-03-17T07:17:51.576Z,68.38
2023-03-17T07:18:51.556Z,68.98
2023-03-17T07:19:51.558Z,69.49
2023-03-17T07:20:51.577Z,68.46
2023-03-17T07:21:51.527Z,70.21
2023-03-17T07:22:51.575Z,70.08
2023-03-17T07:23:51.526Z,70.11
2023-03-17T07:24:51.551Z,68.74
2023-03-17T07:25:51.510Z,68.84
2023-03-17T07:26:51.469Z,68.74
2023-03-17T07:27:51.496Z,68.12
2023-03-17T07:28:51.496Z,68.84
2023-03-17T07:29:51.481Z,69.25
2023-03-17T07:30:51.466Z,69.56
2023-03-17T07:31:51.559Z,69.43
2023-03-17T07:32:51.520Z,69.01
2023-03-17T07:33:51.441Z,69.84
2023-03-17T07:34:51.457Z,68.80
2023-03-17T07:35:51.448Z,67.67
2023-03-17T07:36:51.396Z,68.19
2023-03-17T07:37:51.431Z,67.36
2023-03-17T07:38:51.416Z,67.36
2023-03-17T07:39:51.456Z,67.12
2023-03-17T07:40:51.422Z,67.02
2023-03-17T07:41:51.367Z,67.22
2023-03-17T07:42:51.405Z,67.54
2023-03-17T07:43:51.390Z,66.50
2023-03-17T07:44:51.401Z,67.54
2023-03-17T07:45:51.372Z,66.16
2023-03-17T07:46:51.365Z,66.26
2023-03-17T07:47:51.318Z,66.78
2023-03-17T07:48:51.371Z,66.99
2023-03-17T07:49:51.382Z,66.99
2023-03-17T07:50:51.349Z,65.72
2023-03-17T07:51:51.300Z,65.61
2023-03-17T07:52:51.308Z,64.89
2023-03-17T07:53:51.302Z,65.82
2023-03-17T07:54:51.299Z,66.23
2023-03-17T07:55:51.288Z,66.30
2023-03-17T07:56:51.297Z,65.48
2023-03-17T07:57:51.328Z,64.76
2023-03-17T07:58:51.303Z,64.14
2023-03-17T07:59:51.309Z,63.10
2023-03-17T08:00:51.249Z,63.93
2023-03-17T08:01:51.262Z,64.73
2023-03-17T08:03:07.029Z,65.03
2023-03-17T08:03:53.289Z,64.31
2023-03-17T08:04:51.255Z,64.00
2023-03-17T08:05:51.251Z,64.21
2023-03-17T08:06:51.225Z,65.14
2023-03-17T08:07:51.217Z,65.11
2023-03-17T08:08:51.178Z,64.31
2023-03-17T08:09:52.202Z,63.59
2023-03-17T08:10:51.231Z,64.70
2023-03-17T08:11:51.210Z,63.56
2023-03-17T08:12:51.179Z,62.94
2023-03-17T08:13:51.167Z,63.87
2023-03-17T08:14:51.212Z,64.67
2023-03-17T08:15:51.152Z,63.32
2023-03-17T08:16:51.275Z,63.32
2023-03-17T08:17:51.141Z,63.32
2023-03-17T08:18:51.149Z,62.29
2023-03-17T08:19:51.154Z,62.40
2023-03-17T08:20:51.132Z,62.92
2023-03-17T08:21:51.113Z,63.74
2023-03-17T08:22:51.096Z,64.36
2023-03-17T08:23:51.115Z,62.88
2023-03-17T08:24:51.103Z,63.81
2023-03-17T08:25:52.111Z,64.74
2023-03-17T08:26:51.154Z,64.95
2023-03-17T08:27:51.059Z,62.85
2023-03-17T08:28:51.086Z,62.54
2023-03-17T08:29:51.107Z,63.68
2023-03-17T08:30:51.152Z,62.82
2023-03-17T08:31:51.122Z,62.82
2023-03-17T08:32:51.106Z,62.82
2023-03-17T08:33:51.030Z,62.79
2023-03-17T08:34:51.043Z,61.46
2023-03-17T08:35:51.061Z,60.12
2023-03-17T08:36:50.998Z,61.05
2023-03-17T08:37:51.021Z,61.56
2023-03-17T08:38:51.127Z,61.98
2023-03-17T08:39:50.985Z,61.84
2023-03-17T08:40:51.035Z,62.77
2023-03-17T08:41:51.017Z,62.97
2023-03-17T08:42:50.955Z,61.43
2023-03-17T08:43:51.018Z,62.66
2023-03-17T08:44:50.962Z,62.33
2023-03-17T08:45:51.012Z,60.78
2023-03-17T08:46:50.978Z,61.91
2023-03-17T08:47:50.966Z,61.58
2023-03-17T08:48:50.954Z,61.47
2023-03-17T08:49:50.912Z,59.42
2023-03-17T08:50:50.905Z,59.73
2023-03-17T08:51:50.946Z,59.86
2023-03-17T08:52:50.915Z,59.83
2023-03-17T08:53:50.886Z,59.52
2023-03-17T08:54:50.888Z,59.93
2023-03-17T08:55:50.903Z,59.29
2023-03-17T08:56:50.899Z,59.52
2023-03-17T08:57:50.877Z,58.98
2023-03-17T08:58:50.904Z,58.98
2023-03-17T08:59:51.839Z,58.98
2023-03-17T09:00:50.867Z,57.23
2023-03-17T09:01:50.886Z,57.85
2023-03-17T09:02:50.899Z,58.75
2023-03-17T09:03:50.815Z,57.82
2023-03-17T09:04:50.799Z,59.77
2023-03-17T09:05:50.861Z,58.44
2023-03-17T09:07:02.725Z,57.90
2023-03-17T09:07:52.880Z,57.70
2023-03-17T09:08:50.772Z,57.90
2023-03-17T09:09:50.765Z,57.90
2023-03-17T09:10:51.855Z,55.95
2023-03-17T09:11:50.795Z,56.15
2023-03-17T09:12:50.779Z,56.46
2023-03-17T09:13:50.752Z,56.43
2023-03-17T09:14:50.733Z,55.82
2023-03-17T09:15:52.053Z,56.00
2023-03-17T09:16:51.762Z,55.00
2023-03-17T09:17:51.743Z,54.36
2023-03-17T09:18:50.780Z,55.59
2023-03-17T09:19:50.737Z,56.20
2023-03-17T09:20:50.748Z,55.56
2023-03-17T09:21:50.708Z,54.44
2023-03-17T09:22:50.694Z,54.64
2023-03-17T09:23:50.720Z,54.51
2023-03-17T09:24:50.695Z,55.02
2023-03-17T09:25:50.711Z,54.53
2023-03-17T09:26:50.664Z,54.92
2023-03-17T09:27:50.641Z,56.15
2023-03-17T09:28:50.624Z,56.87
2023-03-17T09:29:50.662Z,55.85
2023-03-17T09:30:50.705Z,56.15
2023-03-17T09:31:50.643Z,56.26
2023-03-17T09:32:50.670Z,55.74
2023-03-17T09:33:50.634Z,56.18
2023-03-17T09:34:51.685Z,56.87
2023-03-17T09:35:51.621Z,56.87
2023-03-17T09:36:50.609Z,56.35
2023-03-17T09:37:50.633Z,57.69
2023-03-17T09:38:50.577Z,56.05
2023-03-17T09:39:50.596Z,56.02
2023-03-17T09:40:50.604Z,55.90
2023-03-17T09:41:50.540Z,55.58
2023-03-17T09:42:50.566Z,55.18
2023-03-17T09:43:50.533Z,54.74
2023-03-17T09:44:50.557Z,53.64
2023-03-17T09:45:50.554Z,54.33
2023-03-17T09:46:50.637Z,53.92
2023-03-17T09:47:50.488Z,54.74
2023-03-17T09:48:50.515Z,54.64
2023-03-17T09:49:51.312Z,52.87
2023-03-17T09:50:50.518Z,52.67
2023-03-17T09:51:50.502Z,53.98
2023-03-17T09:52:51.523Z,54.08
2023-03-17T09:53:51.488Z,54.46
2023-03-17T09:54:50.477Z,53.16
2023-03-17T09:55:51.412Z,52.42
2023-03-17T09:56:50.478Z,52.52
2023-03-17T09:57:50.460Z,52.11
2023-03-17T09:58:51.343Z,53.03
2023-03-17T09:59:51.482Z,52.22
2023-03-17T10:00:50.464Z,52.11
2023-03-17T10:01:50.472Z,50.48
2023-03-17T10:02:50.419Z,51.50
2023-03-17T10:03:50.399Z,53.21
2023-03-17T10:04:50.501Z,52.60
2023-03-17T10:05:50.441Z,50.17
2023-03-17T10:06:50.369Z,50.37
2023-03-17T10:07:50.377Z,51.21
2023-03-17T10:08:50.369Z,50.58
2023-03-17T10:09:50.375Z,51.19
2023-03-17T10:10:50.470Z,51.57
